createdAt,value
2022-09-27T00:01:55.483Z,10.53
2022-09-27T00:04:00.754Z,10.53
2022-09-27T00:06:07.971Z,10.53
2022-09-27T00:08:11.684Z,10.51
2022-09-27T00:10:16.437Z,10.50
2022-09-27T00:12:20.194Z,10.49
2022-09-27T00:14:25.394Z,10.48
2022-09-27T00:16:31.617Z,10.48
2022-09-27T00:18:35.445Z,10.48
2022-09-27T00:20:39.323Z,10.48
2022-09-27T00:22:43.050Z,10.47
2022-09-27T00:24:46.740Z,10.45
2022-09-27T00:26:50.963Z,10.45
2022-09-27T00:28:55.130Z,10.43
2022-09-27T00:31:00.631Z,10.42
2022-09-27T00:33:04.703Z,10.41
2022-09-27T00:35:08.932Z,10.41
2022-09-27T00:37:13.636Z,10.41
2022-09-27T00:39:18.156Z,10.42
2022-09-27T00:41:24.674Z,10.42
2022-09-27T00:43:28.322Z,10.41
2022-09-27T00:45:32.050Z,10.41
2022-09-27T00:47:43.532Z,10.42
2022-09-27T00:49:51.051Z,10.41
2022-09-27T00:51:59.512Z,10.41
2022-09-27T00:54:03.902Z,10.42
2022-09-27T00:56:12.936Z,10.42
2022-09-27T00:58:20.414Z,10.43
2022-09-27T01:00:24.662Z,10.43
2022-09-27T01:02:29.009Z,10.42
2022-09-27T01:04:35.384Z,10.43
2022-09-27T01:06:39.939Z,10.45
2022-09-27T01:08:43.864Z,10.46
2022-09-27T01:11:00.044Z,10.47
2022-09-27T01:13:14.572Z,10.48
2022-09-27T01:15:27.325Z,10.49
2022-09-27T01:17:43.075Z,10.48
2022-09-27T01:20:16.612Z,10.48
2022-09-27T01:22:23.512Z,10.48
2022-09-27T01:25:04.354Z,10.47
2022-09-27T01:27:29.785Z,10.49
2022-09-27T01:29:42.982Z,10.50
2022-09-27T01:31:52.179Z,10.52
2022-09-27T01:34:05.108Z,10.53
2022-09-27T01:36:18.220Z,10.53
2022-09-27T01:38:26.958Z,10.55
2022-09-27T01:40:37.485Z,10.56
2022-09-27T01:43:19.662Z,10.58
2022-09-27T01:45:30.199Z,10.59
2022-09-27T01:47:48.461Z,10.60
2022-09-27T01:50:14.938Z,10.62
2022-09-27T01:52:23.860Z,10.60
2022-09-27T01:54:35.242Z,10.60
2022-09-27T01:56:59.167Z,10.59
2022-09-27T01:59:12.385Z,10.59
2022-09-27T02:01:24.156Z,10.59
2022-09-27T02:03:34.442Z,10.59
2022-09-27T02:06:06.662Z,10.58
2022-09-27T02:08:36.256Z,10.57
2022-09-27T02:10:48.590Z,10.55
2022-09-27T02:12:59.472Z,10.56
2022-09-27T02:15:08.349Z,10.56
2022-09-27T02:17:21.576Z,10.56
2022-09-27T02:19:39.671Z,10.56
2022-09-27T02:21:55.070Z,10.57
2022-09-27T02:24:01.315Z,10.58
2022-09-27T02:26:09.993Z,10.56
2022-09-27T02:28:24.833Z,10.56
2022-09-27T02:30:28.655Z,10.55
2022-09-27T02:32:38.779Z,10.55
2022-09-27T02:34:46.275Z,10.55
2022-09-27T02:36:49.757Z,10.54
2022-09-27T02:38:53.208Z,10.55
2022-09-27T02:40:58.181Z,10.53
2022-09-27T02:43:03.843Z,10.50
2022-09-27T02:45:09.058Z,10.49
2022-09-27T02:47:35.536Z,10.48
2022-09-27T02:50:01.407Z,10.47
2022-09-27T02:52:33.378Z,10.47
2022-09-27T02:54:46.227Z,10.47
2022-09-27T02:57:31.807Z,10.47
2022-09-27T03:00:10.203Z,10.48
2022-09-27T03:02:35.586Z,10.48
2022-09-27T03:05:04.914Z,10.49
2022-09-27T03:07:08.732Z,10.50
2022-09-27T03:09:18.898Z,10.52
2022-09-27T03:11:22.532Z,10.53
2022-09-27T03:13:25.927Z,10.54
2022-09-27T03:15:29.939Z,10.54
2022-09-27T03:17:38.289Z,10.54
2022-09-27T03:20:18.959Z,10.56
2022-09-27T03:22:27.138Z,10.55
2022-09-27T03:24:30.570Z,10.56
2022-09-27T03:26:34.018Z,10.57
2022-09-27T03:28:37.445Z,10.58
2022-09-27T03:30:42.261Z,10.59
2022-09-27T03:32:47.212Z,10.59
2022-09-27T03:35:30.532Z,10.58
2022-09-27T03:37:34.696Z,10.58
2022-09-27T03:39:38.046Z,10.60
2022-09-27T03:41:42.360Z,10.61
2022-09-27T03:43:45.841Z,10.61
2022-09-27T03:45:50.386Z,10.61
2022-09-27T03:47:54.940Z,10.63
2022-09-27T03:49:58.688Z,10.63
2022-09-27T03:52:03.762Z,10.62
2022-09-27T03:54:07.338Z,10.64
2022-09-27T03:56:10.964Z,10.63
2022-09-27T03:58:14.381Z,10.65
2022-09-27T04:00:18.441Z,10.65
2022-09-27T04:02:21.908Z,10.65
2022-09-27T04:04:44.490Z,10.67
2022-09-27T04:06:48.227Z,10.66
2022-09-27T04:08:53.350Z,10.67
2022-09-27T04:10:59.458Z,10.66
2022-09-27T04:13:03.108Z,10.64
2022-09-27T04:15:12.387Z,10.63
2022-09-27T04:17:27.672Z,10.64
2022-09-27T04:20:00.054Z,10.62
2022-09-27T04:22:03.682Z,10.65
2022-09-27T04:24:09.151Z,10.63
2022-09-27T04:26:13.824Z,10.62
2022-09-27T04:28:30.294Z,10.62
2022-09-27T04:30:34.149Z,10.62
2022-09-27T04:32:49.752Z,10.60
2022-09-27T04:35:37.335Z,10.58
2022-09-27T04:37:42.055Z,10.56
2022-09-27T04:39:46.866Z,10.54
2022-09-27T04:41:51.691Z,10.53
2022-09-27T04:43:58.894Z,10.49
2022-09-27T04:46:02.890Z,10.48
2022-09-27T04:48:06.373Z,10.48
2022-09-27T04:50:11.151Z,10.48
2022-09-27T04:52:15.593Z,10.46
2022-09-27T04:54:19.331Z,10.47
2022-09-27T04:56:44.081Z,10.47
2022-09-27T04:58:47.409Z,10.49
2022-09-27T05:00:52.689Z,10.50
2022-09-27T05:03:15.193Z,10.50
2022-09-27T05:05:29.902Z,10.52
2022-09-27T05:07:35.631Z,10.49
2022-09-27T05:09:44.126Z,10.50
2022-09-27T05:11:49.520Z,10.50
2022-09-27T05:13:53.281Z,10.49
2022-09-27T05:15:57.468Z,10.48
2022-09-27T05:18:18.267Z,10.48
2022-09-27T05:20:51.257Z,10.45
2022-09-27T05:23:00.753Z,10.45
2022-09-27T05:25:04.459Z,10.44
2022-09-27T05:27:11.585Z,10.42
2022-09-27T05:29:15.252Z,10.42
2022-09-27T05:31:25.566Z,10.37
2022-09-27T05:33:29.885Z,10.35
2022-09-27T05:35:56.044Z,10.33
2022-09-27T05:38:06.195Z,10.31
2022-09-27T05:40:36.579Z,10.30
2022-09-27T05:42:40.690Z,10.29
2022-09-27T05:44:48.876Z,10.29
2022-09-27T05:46:53.388Z,10.27
2022-09-27T05:48:57.118Z,10.26
2022-09-27T05:51:00.950Z,10.23
2022-09-27T05:53:04.878Z,10.23
2022-09-27T05:55:09.703Z,10.23
2022-09-27T05:57:13.534Z,10.25
2022-09-27T05:59:22.003Z,10.26
2022-09-27T06:01:44.752Z,10.25
2022-09-27T06:03:55.269Z,10.27
2022-09-27T06:06:15.797Z,10.27
2022-09-27T06:08:25.490Z,10.28
2022-09-27T06:10:30.416Z,10.25
2022-09-27T06:12:35.497Z,10.26
2022-09-27T06:14:44.063Z,10.22
2022-09-27T06:16:54.772Z,10.22
2022-09-27T06:19:02.120Z,10.21
2022-09-27T06:21:07.957Z,10.19
2022-09-27T06:23:13.755Z,10.19
2022-09-27T06:25:17.808Z,10.18
2022-09-27T06:27:40.341Z,10.14
2022-09-27T06:29:51.254Z,10.15
2022-09-27T06:32:15.495Z,10.18
2022-09-27T06:34:26.208Z,10.15
2022-09-27T06:36:30.182Z,10.16
2022-09-27T06:38:34.247Z,10.18
2022-09-27T06:40:47.617Z,10.19
2022-09-27T06:42:51.415Z,10.21
2022-09-27T06:45:04.947Z,10.22
2022-09-27T06:47:17.958Z,10.24
2022-09-27T06:49:31.874Z,10.25
2022-09-27T06:51:36.856Z,10.28
2022-09-27T06:53:40.922Z,10.25
2022-09-27T06:55:45.561Z,10.27
2022-09-27T06:58:06.840Z,10.28
2022-09-27T07:00:27.121Z,10.30
2022-09-27T07:03:01.386Z,10.33
2022-09-27T07:05:29.619Z,10.35
2022-09-27T07:07:49.410Z,10.37
2022-09-27T07:09:53.333Z,10.40
2022-09-27T07:11:57.798Z,10.41
2022-09-27T07:14:02.376Z,10.42
2022-09-27T07:16:08.914Z,10.45
2022-09-27T07:18:13.858Z,10.49
2022-09-27T07:20:18.634Z,10.52
2022-09-27T07:22:22.642Z,10.54
2022-09-27T07:24:32.543Z,10.57
2022-09-27T07:26:37.247Z,10.61
2022-09-27T07:28:45.349Z,10.63
2022-09-27T07:30:57.409Z,10.69
2022-09-27T07:33:05.863Z,10.70
2022-09-27T07:35:11.242Z,10.71
2022-09-27T07:37:15.109Z,10.71
2022-09-27T07:39:18.943Z,10.69
2022-09-27T07:41:22.875Z,10.70
2022-09-27T07:43:26.739Z,10.74
2022-09-27T07:45:31.536Z,10.78
2022-09-27T07:47:46.523Z,10.83
2022-09-27T07:50:00.216Z,10.88
2022-09-27T07:52:16.244Z,10.93
2022-09-27T07:54:45.970Z,10.98
2022-09-27T07:57:04.281Z,11.01
2022-09-27T07:59:09.188Z,11.04
2022-09-27T08:01:13.272Z,11.08
2022-09-27T08:03:18.733Z,11.12
2022-09-27T08:05:25.342Z,11.14
2022-09-27T08:07:30.384Z,11.17
2022-09-27T08:09:34.449Z,11.18
2022-09-27T08:11:38.675Z,11.21
2022-09-27T08:13:44.125Z,11.23
2022-09-27T08:15:48.923Z,11.27
2022-09-27T08:17:53.574Z,11.27
2022-09-27T08:20:24.896Z,11.29
2022-09-27T08:22:42.540Z,11.27
2022-09-27T08:24:59.870Z,11.28
2022-09-27T08:27:21.539Z,11.29
2022-09-27T08:29:29.069Z,11.30
2022-09-27T08:31:33.335Z,11.32
2022-09-27T08:33:41.444Z,11.34
2022-09-27T08:35:48.832Z,11.34
2022-09-27T08:37:59.388Z,11.38
2022-09-27T08:40:05.307Z,11.39
2022-09-27T08:42:19.589Z,11.43
2022-09-27T08:44:31.069Z,11.48
2022-09-27T08:47:04.186Z,11.54
2022-09-27T08:49:15.835Z,11.61
2022-09-27T08:51:23.694Z,11.68
2022-09-27T08:53:34.340Z,11.74
2022-09-27T08:55:42.281Z,11.80
2022-09-27T08:57:58.707Z,11.80
2022-09-27T09:00:07.356Z,11.79
2022-09-27T09:02:20.539Z,11.73
2022-09-27T09:04:33.401Z,11.73
2022-09-27T09:06:44.795Z,11.72
2022-09-27T09:09:01.878Z,11.72
2022-09-27T09:11:35.087Z,11.70
2022-09-27T09:13:55.961Z,11.68
2022-09-27T09:16:12.022Z,11.66
2022-09-27T09:18:31.354Z,11.67
2022-09-27T09:21:05.043Z,11.67
2022-09-27T09:23:28.402Z,11.70
2022-09-27T09:25:38.447Z,11.72
2022-09-27T09:27:50.058Z,11.76
2022-09-27T09:30:21.004Z,11.78
2022-09-27T09:32:37.227Z,11.82
2022-09-27T09:34:44.899Z,11.85
2022-09-27T09:36:52.705Z,11.89
2022-09-27T09:39:04.036Z,11.92
2022-09-27T09:41:13.770Z,11.96
2022-09-27T09:43:23.110Z,11.96
2022-09-27T09:45:31.916Z,11.98
2022-09-27T09:47:44.048Z,11.99
2022-09-27T09:49:53.566Z,12.01
2022-09-27T09:52:05.221Z,12.02
2022-09-27T09:54:21.165Z,12.01
2022-09-27T09:56:28.567Z,12.01
2022-09-27T09:58:41.889Z,11.99
2022-09-27T10:00:52.498Z,11.96
2022-09-27T10:02:59.743Z,11.96
2022-09-27T10:05:07.892Z,12.00
2022-09-27T10:07:13.522Z,12.04
2022-09-27T10:09:21.276Z,12.08
2022-09-27T10:11:48.308Z,12.10
2022-09-27T10:13:56.044Z,12.10
2022-09-27T10:16:05.646Z,12.07
2022-09-27T10:18:17.626Z,12.03
2022-09-27T10:20:31.637Z,12.02
2022-09-27T10:22:39.938Z,12.00
2022-09-27T10:24:58.735Z,11.99
2022-09-27T10:27:42.226Z,11.99
2022-09-27T10:29:47.435Z,11.98
2022-09-27T10:31:56.229Z,11.99
2022-09-27T10:34:08.540Z,12.00
2022-09-27T10:36:26.476Z,12.02
2022-09-27T10:38:33.126Z,12.01
2022-09-27T10:40:44.067Z,12.02
2022-09-27T10:42:48.785Z,12.04
2022-09-27T10:44:58.650Z,12.02
2022-09-27T10:47:23.239Z,12.00
2022-09-27T10:49:45.749Z,12.00
2022-09-27T10:52:06.714Z,11.98
2022-09-27T10:54:22.355Z,12.01
2022-09-27T10:56:31.367Z,12.04
2022-09-27T10:58:38.405Z,12.04
2022-09-27T11:00:56.867Z,12.06
2022-09-27T11:03:03.053Z,12.13
2022-09-27T11:05:15.413Z,12.24
2022-09-27T11:07:23.887Z,12.35
2022-09-27T11:09:50.940Z,12.45
2022-09-27T11:12:11.715Z,12.49
2022-09-27T11:14:25.868Z,12.51
2022-09-27T11:16:44.126Z,12.52
2022-09-27T11:19:01.758Z,12.53
2022-09-27T11:21:18.632Z,12.53
2022-09-27T11:23:41.421Z,12.51
2022-09-27T11:26:01.040Z,12.51
2022-09-27T11:28:16.478Z,12.57
2022-09-27T11:30:22.912Z,12.57
2022-09-27T11:33:17.865Z,12.56
2022-09-27T11:35:35.050Z,12.59
2022-09-27T11:37:50.954Z,12.57
2022-09-27T11:40:13.735Z,12.53
2022-09-27T11:42:41.315Z,12.49
2022-09-27T11:47:42.773Z,12.47
2022-09-27T11:50:25.600Z,12.45
2022-09-27T11:52:40.939Z,12.46
2022-09-27T11:55:07.717Z,12.48
2022-09-27T11:57:19.294Z,12.51
2022-09-27T11:59:52.561Z,12.52
2022-09-27T12:02:08.083Z,12.50
2022-09-27T12:04:38.822Z,12.49
2022-09-27T12:06:54.148Z,12.54
2022-09-27T12:09:07.521Z,12.61
2022-09-27T12:11:21.467Z,12.58
2022-09-27T12:13:34.755Z,12.59
2022-09-27T12:15:44.538Z,12.60
2022-09-27T12:17:55.806Z,12.61
2022-09-27T12:20:05.198Z,12.63
2022-09-27T12:22:40.548Z,12.60
2022-09-27T12:24:48.825Z,12.62
2022-09-27T12:27:23.584Z,12.65
2022-09-27T12:29:32.372Z,12.66
2022-09-27T12:31:42.550Z,12.73
2022-09-27T12:33:59.272Z,12.75
2022-09-27T12:36:09.682Z,12.74
2022-09-27T12:38:17.343Z,12.73
2022-09-27T12:40:23.431Z,12.73
2022-09-27T12:42:34.027Z,12.72
2022-09-27T12:44:47.464Z,12.67
2022-09-27T12:46:58.937Z,12.60
2022-09-27T12:49:12.792Z,12.55
2022-09-27T12:51:19.143Z,12.52
2022-09-27T12:53:32.006Z,12.48
2022-09-27T12:55:59.019Z,12.45
2022-09-27T12:58:39.559Z,12.45
2022-09-27T13:00:56.328Z,12.40
2022-09-27T13:03:28.434Z,12.35
2022-09-27T13:06:11.893Z,12.34
2022-09-27T13:08:50.815Z,12.29
2022-09-27T13:11:12.526Z,12.25
2022-09-27T13:13:20.562Z,12.21
2022-09-27T13:15:29.330Z,12.18
2022-09-27T13:17:51.913Z,12.17
2022-09-27T13:20:48.477Z,12.16
2022-09-27T13:24:01.046Z,12.14
2022-09-27T13:26:26.218Z,12.14
2022-09-27T13:28:58.527Z,12.17
2022-09-27T13:31:14.071Z,12.19
2022-09-27T13:33:36.405Z,12.17
2022-09-27T13:35:41.409Z,12.18
2022-09-27T13:37:57.245Z,12.22
2022-09-27T13:40:24.599Z,12.25
2022-09-27T13:42:56.191Z,12.28
2022-09-27T13:45:21.762Z,12.27
2022-09-27T13:47:33.598Z,12.27
2022-09-27T13:49:42.089Z,12.26
2022-09-27T13:51:51.190Z,12.26
2022-09-27T13:54:06.691Z,12.23
2022-09-27T13:56:56.438Z,12.19
2022-09-27T13:59:03.244Z,12.17
2022-09-27T14:01:43.915Z,12.16
2022-09-27T14:03:49.735Z,12.19
2022-09-27T14:05:57.145Z,12.20
2022-09-27T14:08:04.145Z,12.23
2022-09-27T14:10:15.743Z,12.22
2022-09-27T14:12:22.719Z,12.22
2022-09-27T14:14:31.616Z,12.26
2022-09-27T14:16:37.976Z,12.25
2022-09-27T14:18:51.192Z,12.25
2022-09-27T14:21:18.201Z,12.28
2022-09-27T14:23:34.197Z,12.28
2022-09-27T14:25:47.770Z,12.26
2022-09-27T14:27:52.266Z,12.27
2022-09-27T14:30:15.628Z,12.28
2022-09-27T14:32:23.556Z,12.28
2022-09-27T14:34:33.663Z,12.26
2022-09-27T14:36:56.712Z,12.26
2022-09-27T14:39:03.617Z,12.22
2022-09-27T14:41:16.080Z,12.19
2022-09-27T14:43:22.550Z,12.21
2022-09-27T14:45:36.762Z,12.24
2022-09-27T14:47:46.691Z,12.23
2022-09-27T14:49:52.510Z,12.24
2022-09-27T14:51:59.211Z,12.22
2022-09-27T14:54:05.711Z,12.24
2022-09-27T14:56:18.467Z,12.21
2022-09-27T14:58:46.013Z,12.20
2022-09-27T15:00:49.892Z,12.21
2022-09-27T15:02:56.676Z,12.21
2022-09-27T15:05:02.977Z,12.22
2022-09-27T15:07:07.822Z,12.22
2022-09-27T15:09:15.139Z,12.21
2022-09-27T15:11:20.683Z,12.20
2022-09-27T15:13:25.105Z,12.19
2022-09-27T15:15:32.921Z,12.23
2022-09-27T15:17:44.695Z,12.25
2022-09-27T15:20:02.534Z,12.25
2022-09-27T15:22:33.363Z,12.26
2022-09-27T15:24:39.040Z,12.28
2022-09-27T15:26:47.113Z,12.31
2022-09-27T15:28:52.623Z,12.34
2022-09-27T15:30:58.420Z,12.35
2022-09-27T15:33:03.788Z,12.36
2022-09-27T15:35:10.279Z,12.37
2022-09-27T15:37:27.966Z,12.35
2022-09-27T15:39:35.119Z,12.38
2022-09-27T15:42:13.545Z,12.37
2022-09-27T15:44:39.474Z,12.34
2022-09-27T15:46:44.340Z,12.34
2022-09-27T15:48:48.570Z,12.31
2022-09-27T15:50:53.247Z,12.28
2022-09-27T15:52:57.693Z,12.23
2022-09-27T15:55:01.502Z,12.19
2022-09-27T15:57:07.258Z,12.16
2022-09-27T15:59:21.029Z,12.14
2022-09-27T16:01:24.915Z,12.12
2022-09-27T16:03:29.292Z,12.12
2022-09-27T16:05:33.401Z,12.08
2022-09-27T16:07:37.258Z,12.04
2022-09-27T16:09:41.494Z,12.00
2022-09-27T16:11:45.328Z,11.96
2022-09-27T16:13:50.539Z,11.95
2022-09-27T16:15:55.956Z,11.90
2022-09-27T16:18:00.378Z,11.89
2022-09-27T16:20:04.317Z,11.90
2022-09-27T16:22:07.819Z,11.89
2022-09-27T16:24:12.456Z,11.87
2022-09-27T16:26:16.115Z,11.87
2022-09-27T16:28:20.131Z,11.82
2022-09-27T16:30:23.933Z,11.80
2022-09-27T16:32:29.401Z,11.76
2022-09-27T16:34:33.408Z,11.75
2022-09-27T16:36:37.785Z,11.71
2022-09-27T16:38:41.771Z,11.68
2022-09-27T16:40:45.676Z,11.66
2022-09-27T16:42:50.574Z,11.63
2022-09-27T16:44:55.378Z,11.58
2022-09-27T16:46:59.387Z,11.53
2022-09-27T16:49:04.635Z,11.49
2022-09-27T16:51:29.846Z,11.46
2022-09-27T16:53:34.009Z,11.44
2022-09-27T16:55:38.241Z,11.42
2022-09-27T16:57:42.354Z,11.40
2022-09-27T16:59:46.323Z,11.37
2022-09-27T17:01:50.213Z,11.34
2022-09-27T17:03:57.449Z,11.32
2022-09-27T17:06:05.431Z,11.31
2022-09-27T17:08:09.559Z,11.32
2022-09-27T17:10:13.681Z,11.29
2022-09-27T17:12:18.325Z,11.29
2022-09-27T17:14:22.831Z,11.31
2022-09-27T17:16:27.306Z,11.27
2022-09-27T17:18:31.086Z,11.26
2022-09-27T17:20:35.348Z,11.26
2022-09-27T17:22:41.117Z,11.26
2022-09-27T17:24:45.326Z,11.24
2022-09-27T17:26:49.520Z,11.22
2022-09-27T17:28:55.207Z,11.22
2022-09-27T17:31:05.326Z,11.20
2022-09-27T17:33:09.534Z,11.18
2022-09-27T17:35:13.480Z,11.18
2022-09-27T17:37:17.538Z,11.17
2022-09-27T17:39:23.623Z,11.15
2022-09-27T17:41:29.166Z,11.15
2022-09-27T17:43:34.210Z,11.11
2022-09-27T17:45:38.120Z,11.11
2022-09-27T17:48:00.203Z,11.10
2022-09-27T17:50:21.139Z,11.08
2022-09-27T17:52:27.008Z,11.06
2022-09-27T17:54:32.552Z,11.02
2022-09-27T17:56:39.498Z,11.00
2022-09-27T17:58:48.191Z,11.00
2022-09-27T18:00:55.703Z,10.99
2022-09-27T18:03:01.120Z,10.97
2022-09-27T18:05:05.689Z,10.96
2022-09-27T18:07:10.360Z,10.97
2022-09-27T18:09:16.310Z,10.95
2022-09-27T18:11:25.640Z,10.95
2022-09-27T18:13:31.607Z,10.97
2022-09-27T18:15:37.886Z,10.97
2022-09-27T18:17:43.745Z,10.95
2022-09-27T18:19:48.624Z,10.94
2022-09-27T18:21:52.640Z,10.93
2022-09-27T18:23:58.440Z,10.91
2022-09-27T18:26:09.706Z,10.89
2022-09-27T18:28:15.392Z,10.89
2022-09-27T18:30:20.002Z,10.89
2022-09-27T18:32:23.983Z,10.87
2022-09-27T18:34:27.792Z,10.83
2022-09-27T18:36:33.580Z,10.81
2022-09-27T18:38:37.339Z,10.82
2022-09-27T18:40:55.568Z,10.81
2022-09-27T18:42:59.786Z,10.79
2022-09-27T18:45:06.521Z,10.77
2022-09-27T18:47:10.507Z,10.76
2022-09-27T18:49:16.228Z,10.76
2022-09-27T18:51:22.479Z,10.75
2022-09-27T18:53:27.355Z,10.77
2022-09-27T18:55:31.924Z,10.77
2022-09-27T18:57:37.926Z,10.77
2022-09-27T18:59:42.221Z,10.77
2022-09-27T19:01:47.897Z,10.77
2022-09-27T19:03:51.990Z,10.77
2022-09-27T19:05:56.358Z,10.77
2022-09-27T19:08:00.013Z,10.77
2022-09-27T19:10:05.484Z,10.75
2022-09-27T19:12:09.119Z,10.75
2022-09-27T19:14:18.411Z,10.73
2022-09-27T19:16:23.173Z,10.71
2022-09-27T19:18:29.848Z,10.71
2022-09-27T19:20:34.727Z,10.68
2022-09-27T19:22:38.767Z,10.68
2022-09-27T19:24:42.604Z,10.68
2022-09-27T19:26:46.251Z,10.67
2022-09-27T19:28:50.428Z,10.66
2022-09-27T19:30:55.190Z,10.64
2022-09-27T19:32:59.445Z,10.64
2022-09-27T19:35:05.703Z,10.62
2022-09-27T19:37:09.537Z,10.63
2022-09-27T19:39:13.603Z,10.61
2022-09-27T19:41:18.714Z,10.61
2022-09-27T19:43:22.722Z,10.59
2022-09-27T19:45:26.620Z,10.60
2022-09-27T19:47:30.477Z,10.56
2022-09-27T19:49:34.750Z,10.56
2022-09-27T19:51:40.329Z,10.55
2022-09-27T19:53:45.031Z,10.53
2022-09-27T19:55:49.146Z,10.53
2022-09-27T19:57:53.273Z,10.48
2022-09-27T19:59:57.299Z,10.46
2022-09-27T20:02:01.243Z,10.46
2022-09-27T20:04:05.229Z,10.44
2022-09-27T20:06:11.549Z,10.42
2022-09-27T20:08:16.952Z,10.40
2022-09-27T20:10:21.126Z,10.37
2022-09-27T20:12:25.107Z,10.36
2022-09-27T20:14:29.142Z,10.35
2022-09-27T20:16:36.065Z,10.31
2022-09-27T20:18:43.698Z,10.29
2022-09-27T20:20:47.497Z,10.24
2022-09-27T20:22:52.031Z,10.22
2022-09-27T20:24:57.779Z,10.21
2022-09-27T20:27:01.728Z,10.21
2022-09-27T20:29:06.920Z,10.21
2022-09-27T20:31:13.134Z,10.20
2022-09-27T20:33:34.401Z,10.18
2022-09-27T20:35:38.436Z,10.15
2022-09-27T20:37:42.818Z,10.13
2022-09-27T20:39:46.515Z,10.10
2022-09-27T20:41:52.584Z,10.08
2022-09-27T20:43:58.749Z,10.06
2022-09-27T20:46:03.362Z,10.04
2022-09-27T20:48:07.611Z,10.03
2022-09-27T20:50:12.856Z,10.02
2022-09-27T20:52:17.139Z,10.00
2022-09-27T20:54:21.042Z,10.00
2022-09-27T20:56:27.030Z,9.99
2022-09-27T20:58:33.428Z,9.97
2022-09-27T21:00:37.415Z,9.97
2022-09-27T21:02:41.386Z,9.96
2022-09-27T21:04:45.272Z,9.95
2022-09-27T21:06:49.488Z,9.92
2022-09-27T21:08:53.356Z,9.92
2022-09-27T21:10:57.109Z,9.91
2022-09-27T21:13:01.467Z,9.90
2022-09-27T21:15:09.548Z,9.87
2022-09-27T21:17:14.798Z,9.86
2022-09-27T21:19:19.559Z,9.86
2022-09-27T21:21:25.308Z,9.86
2022-09-27T21:23:31.038Z,9.85
2022-09-27T21:25:35.532Z,9.82
2022-09-27T21:27:39.357Z,9.81
2022-09-27T21:29:45.628Z,9.80
2022-09-27T21:31:51.330Z,9.78
2022-09-27T21:33:59.310Z,9.78
2022-09-27T21:36:03.680Z,9.79
2022-09-27T21:38:07.626Z,9.77
2022-09-27T21:40:12.348Z,9.78
2022-09-27T21:42:16.501Z,9.78
2022-09-27T21:44:20.785Z,9.80
2022-09-27T21:46:26.848Z,9.79
2022-09-27T21:48:32.764Z,9.81
2022-09-27T21:50:36.666Z,9.83
2022-09-27T21:52:40.580Z,9.85
2022-09-27T21:54:44.384Z,9.87
2022-09-27T21:56:48.651Z,9.87
2022-09-27T21:58:52.976Z,9.87
2022-09-27T22:00:57.133Z,9.88
2022-09-27T22:03:00.765Z,9.89
2022-09-27T22:05:06.411Z,9.89
2022-09-27T22:07:10.374Z,9.89
2022-09-27T22:09:17.095Z,9.89
2022-09-27T22:11:23.123Z,9.87
2022-09-27T22:13:27.078Z,9.86
2022-09-27T22:15:30.717Z,9.87
2022-09-27T22:17:34.655Z,9.87
2022-09-27T22:19:38.485Z,9.86
2022-09-27T22:21:43.668Z,9.87
2022-09-27T22:23:47.469Z,9.88
2022-09-27T22:25:51.170Z,9.88
2022-09-27T22:27:54.865Z,9.88
2022-09-27T22:29:58.803Z,9.88
2022-09-27T22:32:04.019Z,9.86
2022-09-27T22:34:11.122Z,9.83
2022-09-27T22:36:15.049Z,9.80
2022-09-27T22:38:20.514Z,9.78
2022-09-27T22:40:24.469Z,9.76
2022-09-27T22:42:28.448Z,9.74
2022-09-27T22:44:33.770Z,9.71
2022-09-27T22:46:37.869Z,9.67
2022-09-27T22:48:42.611Z,9.64
2022-09-27T22:50:46.613Z,9.61
2022-09-27T22:52:50.311Z,9.58
2022-09-27T22:54:55.859Z,9.56
2022-09-27T22:56:59.653Z,9.54
2022-09-27T22:59:03.397Z,9.52
2022-09-27T23:01:10.898Z,9.47
2022-09-27T23:03:14.167Z,9.44
2022-09-27T23:05:17.677Z,9.41
2022-09-27T23:07:21.014Z,9.38
2022-09-27T23:09:24.827Z,9.38
2022-09-27T23:11:31.441Z,9.36
2022-09-27T23:13:35.597Z,9.36
2022-09-27T23:15:38.938Z,9.37
2022-09-27T23:17:42.517Z,9.35
2022-09-27T23:19:45.901Z,9.36
2022-09-27T23:21:50.196Z,9.35
2022-09-27T23:23:55.369Z,9.35
2022-09-27T23:26:00.249Z,9.34
2022-09-27T23:28:04.919Z,9.30
2022-09-27T23:30:09.094Z,9.28
2022-09-27T23:32:12.824Z,9.26
2022-09-27T23:34:16.320Z,9.23
2022-09-27T23:36:22.699Z,9.23
2022-09-27T23:38:25.975Z,9.23
2022-09-27T23:40:29.389Z,9.21
2022-09-27T23:42:32.944Z,9.20
2022-09-27T23:44:37.996Z,9.18
2022-09-27T23:46:41.536Z,9.18
2022-09-27T23:48:45.084Z,9.16
2022-09-27T23:50:49.398Z,9.15
2022-09-27T23:52:53.032Z,9.12
2022-09-27T23:54:56.328Z,9.10
2022-09-27T23:56:59.889Z,9.09
2022-09-27T23:59:03.229Z,9.07
